Birchy Bay, Canada
Current Conditions -  °F | °C
As of 2:00 AM on Thursday 27 Nov 2014 (Local Time) from CYQX Reporting Station
Broken Clouds Broken Clouds  
Wind Chill: 34°   Ceiling: 12000
Heat Index: 34°   Visibility: 20mi
Dew Point: 23°   Wind: 2mph
Humidity: 65%   Direction: 280°W
Pressure: 30.1"   Gusts: NA
Location:  49.33°N, 54.73°W
Report Text: CYQX 270500Z 28002KT 20SM SCT029 BKN120 BKN150 01/M05 A3010 RMK SC4AC1AC2 SLP201
Loading
Personal Weather Stations






























Interactive Weather Map New forecast layout! Learn more

10-Day Weather Forecast

Advertisements
Track Severe Weather on mobile